createdAt,value
2023-02-10T05:08:20.995Z,103271.81
2023-02-10T05:10:48.832Z,103266.16
2023-02-10T05:13:16.797Z,103273.50
2023-02-10T05:15:45.246Z,103274.00
2023-02-10T05:18:13.189Z,103279.88
2023-02-10T05:20:40.493Z,103285.81
2023-02-10T05:23:09.516Z,103284.03
2023-02-10T05:25:37.018Z,103288.59
2023-02-10T05:28:05.529Z,103289.03
2023-02-10T05:30:33.590Z,103289.44
2023-02-10T05:33:00.889Z,103287.84
2023-02-10T05:35:28.146Z,103290.56
2023-02-10T05:37:55.383Z,103294.50
2023-02-10T05:40:23.286Z,103299.19
2023-02-10T05:42:51.645Z,103290.81
2023-02-10T05:45:18.904Z,103299.63
2023-02-10T05:47:46.202Z,103299.44
2023-02-10T05:50:13.594Z,103306.00
2023-02-10T05:52:41.481Z,103310.31
2023-02-10T05:55:09.178Z,103315.75
2023-02-10T05:57:37.157Z,103319.41
2023-02-10T06:00:06.420Z,103319.00
2023-02-10T06:02:40.422Z,103326.03
2023-02-10T06:05:09.049Z,103324.69
2023-02-10T06:07:36.745Z,103319.41
2023-02-10T06:10:04.205Z,103321.16
2023-02-10T06:12:32.433Z,103318.97
2023-02-10T06:15:00.241Z,103319.59
2023-02-10T06:17:28.835Z,103318.53
2023-02-10T06:19:56.188Z,103324.03
2023-02-10T06:22:23.861Z,103329.47
2023-02-10T06:24:51.230Z,103338.00
2023-02-10T06:27:18.624Z,103341.00
2023-02-10T06:29:46.349Z,103349.06
2023-02-10T06:32:13.593Z,103353.56
2023-02-10T06:34:41.993Z,103360.38
2023-02-10T06:37:09.454Z,103363.00
2023-02-10T06:39:37.198Z,103357.72
2023-02-10T06:42:04.619Z,103366.66
2023-02-10T06:44:32.401Z,103366.72
2023-02-10T06:47:00.234Z,103369.50
2023-02-10T06:49:27.457Z,103367.09
2023-02-10T06:51:56.259Z,103359.69
2023-02-10T06:54:23.828Z,103361.78
2023-02-10T06:56:51.687Z,103372.28
2023-02-10T06:59:19.159Z,103377.97
2023-02-10T07:01:46.552Z,103381.59
2023-02-10T07:04:14.021Z,103395.94
2023-02-10T07:06:41.380Z,103394.25
2023-02-10T07:09:09.737Z,103392.88
2023-02-10T07:11:38.098Z,103390.59
2023-02-10T07:14:05.386Z,103398.25
2023-02-10T07:16:32.726Z,103393.84
2023-02-10T07:19:00.491Z,103394.94
2023-02-10T07:21:27.859Z,103398.34
2023-02-10T07:23:56.250Z,103405.09
2023-02-10T07:26:23.679Z,103405.81
2023-02-10T07:28:50.958Z,103401.31
2023-02-10T07:31:18.874Z,103404.50
2023-02-10T07:33:46.533Z,103402.75
2023-02-10T07:36:14.205Z,103410.50
2023-02-10T07:38:41.989Z,103409.41
2023-02-10T07:41:09.895Z,103413.72
2023-02-10T07:43:37.255Z,103422.38
2023-02-10T07:46:10.761Z,103429.09
2023-02-10T07:48:38.701Z,103426.78
2023-02-10T07:51:06.208Z,103432.56
2023-02-10T07:53:33.622Z,103437.69
2023-02-10T07:56:01.166Z,103444.63
2023-02-10T07:58:28.601Z,103438.03
2023-02-10T08:00:56.246Z,103445.31
2023-02-10T08:03:23.539Z,103441.00
2023-02-10T08:05:51.023Z,103444.59
2023-02-10T08:08:18.518Z,103440.63
2023-02-10T08:10:46.019Z,103440.38
2023-02-10T08:13:14.536Z,103436.56
2023-02-10T08:15:41.953Z,103430.84
2023-02-10T08:18:09.371Z,103448.38
2023-02-10T08:20:37.146Z,103441.03
2023-02-10T08:23:04.523Z,103437.34
2023-02-10T08:25:31.866Z,103453.28
2023-02-10T08:28:00.611Z,103451.25
2023-02-10T08:30:28.152Z,103456.75
2023-02-10T08:32:56.567Z,103456.47
2023-02-10T08:35:25.213Z,103454.88
2023-02-10T08:37:52.918Z,103461.38
2023-02-10T08:40:20.349Z,103462.75
2023-02-10T08:42:47.603Z,103468.75
2023-02-10T08:45:15.254Z,103480.06
2023-02-10T08:47:43.154Z,103469.28
2023-02-10T08:50:10.509Z,103465.94
2023-02-10T08:52:38.266Z,103465.28
2023-02-10T08:55:06.023Z,103466.63
2023-02-10T08:57:33.865Z,103461.72
2023-02-10T09:00:02.164Z,103466.50
2023-02-10T09:02:30.170Z,103460.38
2023-02-10T09:05:09.604Z,103467.38
2023-02-10T09:07:39.268Z,103481.72
2023-02-10T09:10:07.802Z,103477.88
2023-02-10T09:12:35.238Z,103475.53
2023-02-10T09:15:02.618Z,103475.69
2023-02-10T09:17:32.184Z,103485.50
2023-02-10T09:19:59.491Z,103485.66
2023-02-10T09:22:27.163Z,103487.63
2023-02-10T09:24:54.872Z,103484.41
2023-02-10T09:27:23.133Z,103494.56
2023-02-10T09:29:50.485Z,103497.06
2023-02-10T09:32:18.193Z,103501.16
2023-02-10T09:34:46.290Z,103500.50
2023-02-10T09:37:13.902Z,103506.06
2023-02-10T09:39:42.499Z,103511.13
2023-02-10T09:42:31.263Z,103515.25
2023-02-10T09:45:10.624Z,103522.78
2023-02-10T09:47:51.704Z,103534.16
2023-02-10T09:50:50.390Z,103522.75
2023-02-10T09:53:23.169Z,103530.72
2023-02-10T09:55:58.364Z,103526.31
2023-02-10T09:58:48.054Z,103530.78
2023-02-10T10:01:20.147Z,103536.81
2023-02-10T10:03:57.923Z,103529.22
2023-02-10T10:06:26.537Z,103534.16
2023-02-10T10:08:59.719Z,103535.66
2023-02-10T10:11:37.755Z,103528.81
2023-02-10T10:14:14.656Z,103535.66
2023-02-10T10:16:45.289Z,103528.16
2023-02-10T10:19:31.147Z,103527.59
2023-02-10T10:22:11.848Z,103530.06
2023-02-10T10:25:04.501Z,103515.19
2023-02-10T10:28:01.725Z,103514.56
2023-02-10T10:30:47.151Z,103522.47
2023-02-10T10:33:36.442Z,103514.31
2023-02-10T10:36:06.799Z,103510.53
2023-02-10T10:38:43.093Z,103510.50
2023-02-10T10:41:14.331Z,103505.03
2023-02-10T10:43:54.075Z,103501.69
2023-02-10T10:46:47.538Z,103499.56
2023-02-10T10:49:16.241Z,103486.00
2023-02-10T10:51:43.649Z,103498.31
2023-02-10T10:54:18.525Z,103491.72
2023-02-10T10:56:57.580Z,103480.34
2023-02-10T10:59:42.104Z,103476.69
2023-02-10T11:02:27.483Z,103476.69
2023-02-10T11:05:05.766Z,103464.78
2023-02-10T11:07:34.434Z,103465.72
2023-02-10T11:10:02.656Z,103461.41
2023-02-10T11:12:38.874Z,103464.59
2023-02-10T11:15:32.581Z,103466.03
2023-02-10T11:18:03.131Z,103458.44
2023-02-10T11:20:36.995Z,103470.41
2023-02-10T11:23:14.902Z,103462.16
2023-02-10T11:25:43.043Z,103455.25
2023-02-10T11:28:22.471Z,103456.09
2023-02-10T11:30:57.846Z,103446.34
2023-02-10T11:33:30.130Z,103437.09
2023-02-10T11:36:07.860Z,103438.44
2023-02-10T11:38:36.401Z,103431.19
2023-02-10T11:41:10.200Z,103430.03
2023-02-10T11:43:47.750Z,103422.19
2023-02-10T11:46:25.621Z,103421.41
2023-02-10T11:49:01.712Z,103415.91
2023-02-10T11:51:31.031Z,103417.25
2023-02-10T11:54:00.628Z,103425.34
2023-02-10T11:57:13.841Z,103421.72
2023-02-10T11:59:53.028Z,103417.13
2023-02-10T12:02:39.030Z,103409.28
2023-02-10T12:05:12.747Z,103411.94
2023-02-10T12:07:46.902Z,103397.91
2023-02-10T12:10:34.443Z,103402.88
2023-02-10T12:13:38.510Z,103400.84
2023-02-10T12:16:06.207Z,103397.13
2023-02-10T12:18:52.756Z,103389.25
2023-02-10T12:22:00.937Z,103386.75
2023-02-10T12:24:59.695Z,103378.53
2023-02-10T12:27:51.876Z,103374.97
2023-02-10T12:30:32.485Z,103373.06
2023-02-10T12:33:06.164Z,103370.84
2023-02-10T12:35:40.521Z,103364.94
2023-02-10T12:38:23.329Z,103361.53
2023-02-10T12:41:25.116Z,103365.13
2023-02-10T12:44:14.887Z,103366.09
2023-02-10T12:46:47.012Z,103365.94
2023-02-10T12:49:17.393Z,103355.16
2023-02-10T12:51:55.790Z,103354.41
2023-02-10T12:54:51.431Z,103346.09
2023-02-10T12:57:28.630Z,103351.31
2023-02-10T13:00:11.140Z,103343.06
2023-02-10T13:02:45.979Z,103336.19
2023-02-10T13:05:18.991Z,103335.06
2023-02-10T13:07:49.681Z,103329.91
2023-02-10T13:10:37.525Z,103328.41
2023-02-10T13:13:22.106Z,103331.09
2023-02-10T13:15:55.106Z,103320.50
2023-02-10T13:18:31.260Z,103317.41
2023-02-10T13:21:10.460Z,103317.63
2023-02-10T13:23:52.344Z,103327.28
2023-02-10T13:26:57.673Z,103319.09
2023-02-10T13:29:37.002Z,103320.22
2023-02-10T13:32:39.753Z,103311.91
2023-02-10T13:35:14.400Z,103314.88
2023-02-10T13:37:55.512Z,103306.88
2023-02-10T13:40:26.553Z,103302.31
2023-02-10T13:43:04.622Z,103300.72
2023-02-10T13:45:38.276Z,103297.69
2023-02-10T13:48:16.108Z,103288.41
2023-02-10T13:50:49.529Z,103283.94
2023-02-10T13:53:35.883Z,103281.44
2023-02-10T13:56:21.595Z,103280.78
2023-02-10T13:58:55.650Z,103282.59
2023-02-10T14:01:35.280Z,103277.41
2023-02-10T14:04:08.075Z,103270.78
2023-02-10T14:06:38.938Z,103269.13
2023-02-10T14:09:22.962Z,103273.28
2023-02-10T14:11:52.908Z,103277.59
2023-02-10T14:14:36.093Z,103277.09
2023-02-10T14:17:29.005Z,103272.59
2023-02-10T14:19:59.131Z,103266.44
2023-02-10T14:22:32.301Z,103272.97
2023-02-10T14:25:18.786Z,103259.00
2023-02-10T14:27:57.114Z,103254.44
2023-02-10T14:30:38.060Z,103257.53
2023-02-10T14:33:07.228Z,103253.47
2023-02-10T14:35:39.063Z,103250.16
2023-02-10T14:38:06.836Z,103251.53
2023-02-10T14:40:34.581Z,103251.72
2023-02-10T14:43:03.249Z,103248.00
2023-02-10T14:45:31.346Z,103253.06
2023-02-10T14:48:00.970Z,103243.84
2023-02-10T14:50:30.613Z,103244.44
2023-02-10T14:52:59.464Z,103253.91
2023-02-10T14:55:31.761Z,103256.47
2023-02-10T14:58:19.031Z,103249.97
2023-02-10T15:01:28.883Z,103250.47
2023-02-10T15:03:58.859Z,103240.78
2023-02-10T15:06:30.455Z,103248.25
2023-02-10T15:09:14.696Z,103251.63
2023-02-10T15:12:04.809Z,103251.34
2023-02-10T15:14:37.228Z,103253.41
2023-02-10T15:17:08.926Z,103250.59
2023-02-10T15:19:36.508Z,103253.75
2023-02-10T15:22:05.584Z,103243.78
2023-02-10T15:24:34.621Z,103247.28
2023-02-10T15:27:19.632Z,103239.25
2023-02-10T15:29:47.455Z,103241.31
2023-02-10T15:32:22.639Z,103244.03
2023-02-10T15:34:55.050Z,103244.03
2023-02-10T15:37:25.752Z,103240.25
2023-02-10T15:39:59.160Z,103238.91
2023-02-10T15:42:33.700Z,103242.34
2023-02-10T15:45:05.207Z,103241.91
2023-02-10T15:47:47.121Z,103237.50
2023-02-10T15:50:15.537Z,103235.03
2023-02-10T15:52:48.730Z,103232.72
2023-02-10T15:55:29.507Z,103237.06
2023-02-10T15:57:57.266Z,103238.72
2023-02-10T16:00:29.806Z,103234.75
2023-02-10T16:02:57.519Z,103230.44
2023-02-10T16:05:25.796Z,103231.75
2023-02-10T16:07:53.794Z,103238.22
2023-02-10T16:10:25.010Z,103235.13
2023-02-10T16:12:53.099Z,103236.75
2023-02-10T16:15:24.341Z,103236.66
2023-02-10T16:17:56.561Z,103242.09
2023-02-10T16:20:30.074Z,103245.25
2023-02-10T16:22:57.632Z,103256.84
2023-02-10T16:25:27.530Z,103252.00
2023-02-10T16:27:55.479Z,103251.31
2023-02-10T16:30:27.060Z,103249.16
2023-02-10T16:32:56.977Z,103247.75
2023-02-10T16:35:24.702Z,103252.41
2023-02-10T16:37:55.491Z,103263.75
2023-02-10T16:40:27.951Z,103265.75
2023-02-10T16:42:56.058Z,103265.91
2023-02-10T16:45:25.987Z,103262.22
2023-02-10T16:47:54.542Z,103261.09
2023-02-10T16:50:31.156Z,103266.34
2023-02-10T16:52:59.436Z,103269.09
2023-02-10T16:55:28.332Z,103271.31
2023-02-10T16:57:55.800Z,103263.06
2023-02-10T17:00:23.824Z,103265.22
2023-02-10T17:02:51.604Z,103265.81
2023-02-10T17:05:20.400Z,103263.88
2023-02-10T17:07:48.851Z,103267.66
2023-02-10T17:10:28.036Z,103266.97
2023-02-10T17:12:55.984Z,103270.94
2023-02-10T17:15:24.102Z,103276.53
2023-02-10T17:17:51.739Z,103278.34
2023-02-10T17:20:28.902Z,103277.69
2023-02-10T17:22:57.856Z,103285.06
2023-02-10T17:25:25.650Z,103283.72
2023-02-10T17:27:53.704Z,103293.91
2023-02-10T17:30:23.610Z,103285.63
2023-02-10T17:32:51.660Z,103292.34
2023-02-10T17:35:21.634Z,103295.03
2023-02-10T17:37:50.311Z,103297.16
2023-02-10T17:40:34.154Z,103302.03
2023-02-10T17:43:01.997Z,103301.25
2023-02-10T17:45:29.975Z,103309.72
2023-02-10T17:47:57.745Z,103307.38
2023-02-10T17:50:25.128Z,103315.66
2023-02-10T17:52:52.521Z,103320.19
2023-02-10T17:55:22.626Z,103320.97
2023-02-10T17:57:50.414Z,103322.03
2023-02-10T18:00:18.545Z,103334.25
2023-02-10T18:02:48.707Z,103335.09
2023-02-10T18:05:16.217Z,103328.13
2023-02-10T18:07:43.924Z,103338.31
2023-02-10T18:10:11.634Z,103334.44
2023-02-10T18:12:38.890Z,103333.78
2023-02-10T18:15:07.162Z,103341.00
2023-02-10T18:17:35.723Z,103349.91
2023-02-10T18:20:04.694Z,103341.63
2023-02-10T18:22:33.541Z,103348.09
2023-02-10T18:25:00.901Z,103351.00
2023-02-10T18:27:28.241Z,103340.31
2023-02-10T18:29:55.897Z,103347.78
2023-02-10T18:32:23.155Z,103343.75
2023-02-10T18:34:51.344Z,103344.09
2023-02-10T18:37:18.874Z,103341.28
2023-02-10T18:39:46.144Z,103345.84
2023-02-10T18:42:13.677Z,103342.81
2023-02-10T18:44:41.559Z,103342.16
2023-02-10T18:47:09.404Z,103347.25
2023-02-10T18:49:37.471Z,103355.16
2023-02-10T18:52:04.966Z,103357.06
2023-02-10T18:54:32.270Z,103350.41
2023-02-10T18:56:59.779Z,103340.63
2023-02-10T18:59:30.267Z,103347.09
2023-02-10T19:01:57.903Z,103349.41
2023-02-10T19:04:25.306Z,103356.47
2023-02-10T19:06:52.562Z,103358.34
2023-02-10T19:09:21.122Z,103358.13
2023-02-10T19:11:50.364Z,103354.81
2023-02-10T19:14:17.728Z,103357.66
2023-02-10T19:16:45.551Z,103357.25
2023-02-10T19:19:12.870Z,103352.03
2023-02-10T19:21:40.505Z,103360.66
2023-02-10T19:24:11.068Z,103359.75
2023-02-10T19:26:39.198Z,103366.13
2023-02-10T19:29:07.089Z,103365.84
2023-02-10T19:31:34.459Z,103368.94
2023-02-10T19:34:02.502Z,103367.84
2023-02-10T19:36:29.891Z,103365.47
2023-02-10T19:38:57.567Z,103382.19
2023-02-10T19:41:27.371Z,103372.16
2023-02-10T19:43:55.352Z,103374.94
2023-02-10T19:46:25.304Z,103383.94
2023-02-10T19:48:53.125Z,103379.66
2023-02-10T19:51:24.579Z,103382.44
2023-02-10T19:53:54.052Z,103381.72
2023-02-10T19:56:21.503Z,103381.22
2023-02-10T19:58:48.932Z,103382.84
2023-02-10T20:01:18.218Z,103386.94
2023-02-10T20:03:49.153Z,103393.00
2023-02-10T20:06:24.563Z,103393.59
2023-02-10T20:08:52.828Z,103392.91
2023-02-10T20:11:20.699Z,103393.28
2023-02-10T20:13:49.147Z,103391.91
2023-02-10T20:16:17.137Z,103398.00
2023-02-10T20:18:45.439Z,103396.84
2023-02-10T20:21:13.456Z,103408.31
2023-02-10T20:23:42.291Z,103399.56
2023-02-10T20:26:12.865Z,103403.47
2023-02-10T20:28:41.439Z,103401.25
2023-02-10T20:31:14.603Z,103403.66
2023-02-10T20:33:43.891Z,103412.19
2023-02-10T20:36:14.171Z,103408.91
2023-02-10T20:38:43.216Z,103414.47
2023-02-10T20:41:12.154Z,103408.59
2023-02-10T20:43:39.966Z,103409.31
2023-02-10T20:46:09.438Z,103414.19
2023-02-10T20:48:37.832Z,103407.44
2023-02-10T20:51:07.882Z,103405.97
2023-02-10T20:53:38.482Z,103412.22
2023-02-10T20:56:06.576Z,103406.34
2023-02-10T20:58:34.415Z,103407.66
2023-02-10T21:01:07.128Z,103413.91
2023-02-10T21:03:39.012Z,103411.53
2023-02-10T21:06:08.156Z,103416.88
2023-02-10T21:08:37.256Z,103420.75
2023-02-10T21:11:05.908Z,103421.00
2023-02-10T21:13:34.547Z,103412.69
2023-02-10T21:16:02.625Z,103429.13
2023-02-10T21:18:30.334Z,103417.56
2023-02-10T21:21:02.736Z,103419.09
2023-02-10T21:23:30.271Z,103419.31
2023-02-10T21:25:59.568Z,103423.06
2023-02-10T21:28:28.372Z,103429.50
2023-02-10T21:30:56.814Z,103428.09
2023-02-10T21:33:24.927Z,103432.25
2023-02-10T21:35:56.779Z,103426.03
2023-02-10T21:38:25.170Z,103429.13
2023-02-10T21:41:05.469Z,103428.38
2023-02-10T21:43:33.224Z,103430.81
2023-02-10T21:46:01.435Z,103434.03
2023-02-10T21:48:28.822Z,103431.13
2023-02-10T21:50:59.670Z,103436.47
2023-02-10T21:53:28.091Z,103442.63
2023-02-10T21:55:55.330Z,103443.47
2023-02-10T21:58:23.965Z,103441.03
2023-02-10T22:00:51.626Z,103432.03
2023-02-10T22:03:18.947Z,103428.31
2023-02-10T22:05:54.419Z,103425.63
2023-02-10T22:08:22.795Z,103423.59
2023-02-10T22:10:50.076Z,103439.94
2023-02-10T22:13:17.479Z,103424.91
2023-02-10T22:15:44.875Z,103429.53
2023-02-10T22:18:13.180Z,103421.16
2023-02-10T22:20:40.498Z,103428.75
2023-02-10T22:23:08.275Z,103431.16
2023-02-10T22:25:35.642Z,103436.97
2023-02-10T22:28:02.993Z,103444.34
2023-02-10T22:30:31.043Z,103441.50
2023-02-10T22:32:58.765Z,103443.66
2023-02-10T22:35:26.085Z,103448.00
2023-02-10T22:37:53.362Z,103447.28
2023-02-10T22:40:20.729Z,103450.53
2023-02-10T22:42:47.977Z,103458.44
2023-02-10T22:45:15.341Z,103455.00
2023-02-10T22:47:42.585Z,103457.66
2023-02-10T22:50:09.853Z,103457.22
2023-02-10T22:52:37.583Z,103469.03
2023-02-10T22:55:06.590Z,103462.94
2023-02-10T22:57:37.238Z,103458.72
2023-02-10T23:00:07.510Z,103458.19
2023-02-10T23:02:35.899Z,103452.91
2023-02-10T23:05:03.853Z,103456.72
2023-02-10T23:07:31.615Z,103457.91
2023-02-10T23:09:59.798Z,103461.97
2023-02-10T23:12:27.078Z,103468.81
2023-02-10T23:14:54.734Z,103457.13
2023-02-10T23:17:25.442Z,103457.31
2023-02-10T23:19:54.729Z,103458.88
2023-02-10T23:22:24.528Z,103461.19
2023-02-10T23:24:52.838Z,103455.97
2023-02-10T23:27:20.285Z,103457.75
2023-02-10T23:29:48.715Z,103462.00
2023-02-10T23:32:17.073Z,103474.44
2023-02-10T23:34:44.350Z,103466.97
2023-02-10T23:37:12.370Z,103462.59
2023-02-10T23:39:39.710Z,103459.19
2023-02-10T23:42:07.489Z,103463.56
2023-02-10T23:44:34.918Z,103462.16
2023-02-10T23:47:02.339Z,103460.50
2023-02-10T23:49:30.114Z,103458.19
2023-02-10T23:51:58.465Z,103450.66
2023-02-10T23:54:25.918Z,103442.91
2023-02-10T23:56:53.246Z,103445.47
2023-02-10T23:59:20.857Z,103445.19
